sensor_id;sensor_type;location;lat;lon;timestamp;pressure;altitude;pressure_sealevel;temperature;humidity
35443;BME280;21561;55.654;37.592;2023-04-26T00:01:29;98061.78;;;10.74;96.81
35443;BME280;21561;55.654;37.592;2023-04-26T00:03:56;98060.91;;;10.75;97.61
35443;BME280;21561;55.654;37.592;2023-04-26T00:06:23;98042.78;;;10.74;96.30
35443;BME280;21561;55.654;37.592;2023-04-26T00:08:50;98055.91;;;10.69;98.17
35443;BME280;21561;55.654;37.592;2023-04-26T00:11:17;98046.44;;;10.68;97.25
35443;BME280;21561;55.654;37.592;2023-04-26T00:13:44;98036.84;;;10.70;97.33
35443;BME280;21561;55.654;37.592;2023-04-26T00:16:12;98044.38;;;10.78;95.03
35443;BME280;21561;55.654;37.592;2023-04-26T00:18:39;98040.16;;;10.75;100.00
35443;BME280;21561;55.654;37.592;2023-04-26T00:21:05;98039.22;;;10.76;95.42
35443;BME280;21561;55.654;37.592;2023-04-26T00:23:32;98042.03;;;10.70;98.79
35443;BME280;21561;55.654;37.592;2023-04-26T00:25:58;98034.31;;;10.68;97.72
35443;BME280;21561;55.654;37.592;2023-04-26T00:28:25;98040.56;;;10.63;100.00
35443;BME280;21561;55.654;37.592;2023-04-26T00:30:52;98036.38;;;10.59;100.00
35443;BME280;21561;55.654;37.592;2023-04-26T00:33:18;98030.31;;;10.58;100.00
35443;BME280;21561;55.654;37.592;2023-04-26T00:35:45;98031.06;;;10.62;98.93
35443;BME280;21561;55.654;37.592;2023-04-26T00:38:11;98019.81;;;10.63;96.82
35443;BME280;21561;55.654;37.592;2023-04-26T00:40:38;98023.28;;;10.62;99.40
35443;BME280;21561;55.654;37.592;2023-04-26T00:43:05;98023.28;;;10.62;98.25
35443;BME280;21561;55.654;37.592;2023-04-26T00:45:31;98011.22;;;10.61;98.04
35443;BME280;21561;55.654;37.592;2023-04-26T00:47:58;98020.13;;;10.54;100.00
35443;BME280;21561;55.654;37.592;2023-04-26T00:50:26;98011.53;;;10.52;100.00
35443;BME280;21561;55.654;37.592;2023-04-26T00:52:54;98008.06;;;10.51;100.00
35443;BME280;21561;55.654;37.592;2023-04-26T00:55:21;98007.94;;;10.56;98.05
35443;BME280;21561;55.654;37.592;2023-04-26T00:57:48;98004.56;;;10.54;97.94
35443;BME280;21561;55.654;37.592;2023-04-26T01:00:15;98005.47;;;10.51;98.26
35443;BME280;21561;55.654;37.592;2023-04-26T01:02:42;97999.56;;;10.47;98.90
35443;BME280;21561;55.654;37.592;2023-04-26T01:05:09;97999.56;;;10.47;98.38
35443;BME280;21561;55.654;37.592;2023-04-26T01:07:36;97998.72;;;10.47;99.71
35443;BME280;21561;55.654;37.592;2023-04-26T01:10:04;97997.88;;;10.46;98.60
35443;BME280;21561;55.654;37.592;2023-04-26T01:12:31;97990.97;;;10.45;99.00
35443;BME280;21561;55.654;37.592;2023-04-26T01:14:58;97985.88;;;10.42;98.89
35443;BME280;21561;55.654;37.592;2023-04-26T01:17:25;97978.81;;;10.47;100.00
35443;BME280;21561;55.654;37.592;2023-04-26T01:19:52;97972.03;;;10.43;100.00
35443;BME280;21561;55.654;37.592;2023-04-26T01:22:19;97974.44;;;10.48;98.55
35443;BME280;21561;55.654;37.592;2023-04-26T01:24:47;97969.28;;;10.48;96.96
35443;BME280;21561;55.654;37.592;2023-04-26T01:27:16;97966.44;;;10.56;98.83
35443;BME280;21561;55.654;37.592;2023-04-26T01:29:42;97961.25;;;10.56;97.69
35443;BME280;21561;55.654;37.592;2023-04-26T01:32:09;97962.94;;;10.57;98.99
35443;BME280;21561;55.654;37.592;2023-04-26T01:34:37;97961.22;;;10.57;98.23
35443;BME280;21561;55.654;37.592;2023-04-26T01:37:03;97965.53;;;10.57;97.20
35443;BME280;21561;55.654;37.592;2023-04-26T01:39:30;97957.75;;;10.57;98.71
35443;BME280;21561;55.654;37.592;2023-04-26T01:41:57;97956.94;;;10.55;98.64
35443;BME280;21561;55.654;37.592;2023-04-26T01:44:28;97952.69;;;10.54;98.35
35443;BME280;21561;55.654;37.592;2023-04-26T01:46:54;97947.59;;;10.50;100.00
35443;BME280;21561;55.654;37.592;2023-04-26T01:49:21;97944.22;;;10.48;100.00
35443;BME280;21561;55.654;37.592;2023-04-26T01:51:48;97945.09;;;10.47;100.00
35443;BME280;21561;55.654;37.592;2023-04-26T01:54:14;97933.94;;;10.45;100.00
35443;BME280;21561;55.654;37.592;2023-04-26T01:56:41;97934.81;;;10.44;100.00
35443;BME280;21561;55.654;37.592;2023-04-26T01:59:08;97934.81;;;10.44;100.00
35443;BME280;21561;55.654;37.592;2023-04-26T02:01:34;97932.19;;;10.46;100.00
35443;BME280;21561;55.654;37.592;2023-04-26T02:04:01;97929.75;;;10.41;100.00
35443;BME280;21561;55.654;37.592;2023-04-26T02:06:28;97921.97;;;10.41;100.00
35443;BME280;21561;55.654;37.592;2023-04-26T02:08:55;97918.59;;;10.39;100.00
35443;BME280;21561;55.654;37.592;2023-04-26T02:11:22;97918.47;;;10.42;100.00
35443;BME280;21561;55.654;37.592;2023-04-26T02:13:49;97917.59;;;10.43;100.00
35443;BME280;21561;55.654;37.592;2023-04-26T02:16:16;97914.16;;;10.43;99.90
35443;BME280;21561;55.654;37.592;2023-04-26T02:18:43;97917.84;;;10.36;100.00
35443;BME280;21561;55.654;37.592;2023-04-26T02:21:10;97911.00;;;10.33;100.00
35443;BME280;21561;55.654;37.592;2023-04-26T02:23:37;97904.16;;;10.30;100.00
35443;BME280;21561;55.654;37.592;2023-04-26T02:26:04;97905.78;;;10.35;100.00
35443;BME280;21561;55.654;37.592;2023-04-26T02:28:30;97916.16;;;10.35;100.00
35443;BME280;21561;55.654;37.592;2023-04-26T02:30:57;97898.97;;;10.32;100.00
35443;BME280;21561;55.654;37.592;2023-04-26T02:33:24;97900.03;;;10.25;100.00
35443;BME280;21561;55.654;37.592;2023-04-26T02:35:50;97903.56;;;10.22;100.00
35443;BME280;21561;55.654;37.592;2023-04-26T02:38:17;97896.75;;;10.20;100.00
35443;BME280;21561;55.654;37.592;2023-04-26T02:40:44;97889.84;;;10.19;100.00
35443;BME280;21561;55.654;37.592;2023-04-26T02:43:10;97889.81;;;10.20;100.00
35443;BME280;21561;55.654;37.592;2023-04-26T02:45:43;97893.16;;;10.24;100.00
35443;BME280;21561;55.654;37.592;2023-04-26T02:48:09;97884.66;;;10.19;100.00
35443;BME280;21561;55.654;37.592;2023-04-26T02:50:36;97890.78;;;10.18;100.00
35443;BME280;21561;55.654;37.592;2023-04-26T02:53:03;97888.19;;;10.18;100.00
35443;BME280;21561;55.654;37.592;2023-04-26T02:55:29;97885.69;;;10.15;100.00
35443;BME280;21561;55.654;37.592;2023-04-26T02:57:56;97884.88;;;10.12;100.00
35443;BME280;21561;55.654;37.592;2023-04-26T03:00:22;97880.22;;;10.22;100.00
35443;BME280;21561;55.654;37.592;2023-04-26T03:02:50;97886.47;;;10.17;100.00
35443;BME280;21561;55.654;37.592;2023-04-26T03:05:17;97882.25;;;10.14;100.00
35443;BME280;21561;55.654;37.592;2023-04-26T03:07:45;97861.63;;;10.11;100.00
35443;BME280;21561;55.654;37.592;2023-04-26T03:10:12;97876.56;;;10.03;100.00
35443;BME280;21561;55.654;37.592;2023-04-26T03:12:38;97875.59;;;10.07;100.00
35443;BME280;21561;55.654;37.592;2023-04-26T03:15:05;97870.44;;;10.05;100.00
35443;BME280;21561;55.654;37.592;2023-04-26T03:17:32;97870.44;;;10.05;100.00
35443;BME280;21561;55.654;37.592;2023-04-26T03:19:58;97856.88;;;9.97;100.00
35443;BME280;21561;55.654;37.592;2023-04-26T03:22:28;97868.25;;;9.93;100.00
35443;BME280;21561;55.654;37.592;2023-04-26T03:24:54;97870.06;;;9.91;100.00
35443;BME280;21561;55.654;37.592;2023-04-26T03:27:22;97866.66;;;9.89;100.00
35443;BME280;21561;55.654;37.592;2023-04-26T03:29:48;97865.06;;;9.85;100.00
35443;BME280;21561;55.654;37.592;2023-04-26T03:32:16;97861.59;;;9.86;100.00
35443;BME280;21561;55.654;37.592;2023-04-26T03:34:43;97859.19;;;9.80;100.00
35443;BME280;21561;55.654;37.592;2023-04-26T03:37:09;97860.19;;;9.75;100.00
35443;BME280;21561;55.654;37.592;2023-04-26T03:39:36;97860.19;;;9.75;100.00
35443;BME280;21561;55.654;37.592;2023-04-26T03:42:03;97852.38;;;9.77;100.00
35443;BME280;21561;55.654;37.592;2023-04-26T03:44:29;97846.44;;;9.73;100.00
35443;BME280;21561;55.654;37.592;2023-04-26T03:46:56;97844.72;;;9.72;100.00
35443;BME280;21561;55.654;37.592;2023-04-26T03:49:23;97851.53;;;9.77;100.00
35443;BME280;21561;55.654;37.592;2023-04-26T03:51:49;97839.53;;;9.72;100.00
35443;BME280;21561;55.654;37.592;2023-04-26T03:54:16;97837.88;;;9.71;100.00
35443;BME280;21561;55.654;37.592;2023-04-26T03:56:43;97838.81;;;9.69;100.00
35443;BME280;21561;55.654;37.592;2023-04-26T03:59:09;97836.28;;;9.67;100.00
35443;BME280;21561;55.654;37.592;2023-04-26T04:01:36;97838.06;;;9.65;100.00
35443;BME280;21561;55.654;37.592;2023-04-26T04:04:03;97836.34;;;9.66;100.00
35443;BME280;21561;55.654;37.592;2023-04-26T04:06:30;97838.81;;;9.69;100.00
35443;BME280;21561;55.654;37.592;2023-04-26T04:08:58;97839.53;;;9.72;100.00
35443;BME280;21561;55.654;37.592;2023-04-26T04:11:24;97838.56;;;9.77;100.00
35443;BME280;21561;55.654;37.592;2023-04-26T04:13:51;97838.53;;;9.78;100.00
35443;BME280;21561;55.654;37.592;2023-04-26T04:16:18;97834.19;;;9.79;100.00
35443;BME280;21561;55.654;37.592;2023-04-26T04:18:44;97834.19;;;9.79;100.00
35443;BME280;21561;55.654;37.592;2023-04-26T04:21:11;97837.56;;;9.81;100.00
35443;BME280;21561;55.654;37.592;2023-04-26T04:23:38;97829.00;;;9.79;100.00
35443;BME280;21561;55.654;37.592;2023-04-26T04:26:04;97828.91;;;9.82;100.00
35443;BME280;21561;55.654;37.592;2023-04-26T04:28:31;97818.56;;;9.82;100.00
35443;BME280;21561;55.654;37.592;2023-04-26T04:30:59;97824.56;;;9.82;100.00
35443;BME280;21561;55.654;37.592;2023-04-26T04:33:27;97828.78;;;9.85;100.00
35443;BME280;21561;55.654;37.592;2023-04-26T04:35:53;97820.13;;;9.86;100.00
35443;BME280;21561;55.654;37.592;2023-04-26T04:38:20;97822.03;;;9.81;100.00
35443;BME280;21561;55.654;37.592;2023-04-26T04:40:47;97819.22;;;9.87;100.00
35443;BME280;21561;55.654;37.592;2023-04-26T04:43:15;97824.34;;;9.88;100.00
35443;BME280;21561;55.654;37.592;2023-04-26T04:45:43;97813.00;;;9.92;100.00
35443;BME280;21561;55.654;37.592;2023-04-26T04:48:09;97820.69;;;9.94;100.00
35443;BME280;21561;55.654;37.592;2023-04-26T04:50:37;97824.03;;;9.98;100.00
35443;BME280;21561;55.654;37.592;2023-04-26T04:53:04;97824.91;;;9.98;100.00
35443;BME280;21561;55.654;37.592;2023-04-26T04:55:31;97830.03;;;10.00;100.00
35443;BME280;21561;55.654;37.592;2023-04-26T04:57:59;97829.22;;;9.98;100.00
35443;BME280;21561;55.654;37.592;2023-04-26T05:00:25;97821.44;;;9.98;100.00
35443;BME280;21561;55.654;37.592;2023-04-26T05:02:52;97825.78;;;9.97;100.00
35443;BME280;21561;55.654;37.592;2023-04-26T05:05:19;97823.09;;;10.00;100.00
35443;BME280;21561;55.654;37.592;2023-04-26T05:07:46;97820.47;;;10.02;100.00
35443;BME280;21561;55.654;37.592;2023-04-26T05:10:13;97826.44;;;10.04;100.00
35443;BME280;21561;55.654;37.592;2023-04-26T05:12:39;97826.25;;;10.08;100.00
35443;BME280;21561;55.654;37.592;2023-04-26T05:15:06;97818.28;;;10.15;100.00
35443;BME280;21561;55.654;37.592;2023-04-26T05:17:33;97826.25;;;10.08;100.00
35443;BME280;21561;55.654;37.592;2023-04-26T05:20:00;97823.63;;;10.10;100.00
35443;BME280;21561;55.654;37.592;2023-04-26T05:22:32;97820.78;;;10.18;100.00
35443;BME280;21561;55.654;37.592;2023-04-26T05:25:00;97813.06;;;10.16;100.00
35443;BME280;21561;55.654;37.592;2023-04-26T05:27:28;97826.75;;;10.20;100.00
35443;BME280;21561;55.654;37.592;2023-04-26T05:29:55;97815.59;;;10.18;100.00
35443;BME280;21561;55.654;37.592;2023-04-26T05:32:21;97818.06;;;10.21;100.00
35443;BME280;21561;55.654;37.592;2023-04-26T05:34:48;97821.34;;;10.26;100.00
35443;BME280;21561;55.654;37.592;2023-04-26T05:37:15;97818.41;;;10.37;100.00
35443;BME280;21561;55.654;37.592;2023-04-26T05:39:42;97819.94;;;10.42;100.00
35443;BME280;21561;55.654;37.592;2023-04-26T05:42:09;97818.56;;;10.57;100.00
35443;BME280;21561;55.654;37.592;2023-04-26T05:44:36;97819.06;;;10.67;100.00
35443;BME280;21561;55.654;37.592;2023-04-26T05:47:02;97817.50;;;10.63;100.00
35443;BME280;21561;55.654;37.592;2023-04-26T05:49:29;97812.63;;;10.54;100.00
35443;BME280;21561;55.654;37.592;2023-04-26T05:51:59;97814.44;;;10.52;100.00
35443;BME280;21561;55.654;37.592;2023-04-26T05:54:26;97813.63;;;10.49;100.00
35443;BME280;21561;55.654;37.592;2023-04-26T05:56:52;97816.13;;;10.53;100.00
35443;BME280;21561;55.654;37.592;2023-04-26T05:59:19;97828.25;;;10.52;100.00
35443;BME280;21561;55.654;37.592;2023-04-26T06:01:46;97819.16;;;10.64;100.00
35443;BME280;21561;55.654;37.592;2023-04-26T06:04:13;97822.78;;;10.60;100.00
35443;BME280;21561;55.654;37.592;2023-04-26T06:06:40;97827.97;;;10.60;100.00
35443;BME280;21561;55.654;37.592;2023-04-26T06:09:07;97826.28;;;10.59;100.00
35443;BME280;21561;55.654;37.592;2023-04-26T06:11:34;97831.47;;;10.59;100.00
35443;BME280;21561;55.654;37.592;2023-04-26T06:14:00;97830.41;;;10.64;100.00
35443;BME280;21561;55.654;37.592;2023-04-26T06:16:27;97826.16;;;10.62;100.00
35443;BME280;21561;55.654;37.592;2023-04-26T06:18:53;97839.03;;;10.65;100.00
35443;BME280;21561;55.654;37.592;2023-04-26T06:21:20;97831.00;;;10.71;100.00
35443;BME280;21561;55.654;37.592;2023-04-26T06:23:47;97835.19;;;10.75;100.00
35443;BME280;21561;55.654;37.592;2023-04-26T06:26:13;97839.59;;;10.73;100.00
35443;BME280;21561;55.654;37.592;2023-04-26T06:28:40;97831.81;;;10.73;100.00
35443;BME280;21561;55.654;37.592;2023-04-26T06:31:07;97837.06;;;10.72;100.00
35443;BME280;21561;55.654;37.592;2023-04-26T06:33:34;97834.28;;;10.76;100.00
35443;BME280;21561;55.654;37.592;2023-04-26T06:36:01;97835.31;;;10.72;100.00
35443;BME280;21561;55.654;37.592;2023-04-26T06:38:27;97832.59;;;10.75;100.00
35443;BME280;21561;55.654;37.592;2023-04-26T06:40:54;97833.50;;;10.74;100.00
35443;BME280;21561;55.654;37.592;2023-04-26T06:43:21;97839.47;;;10.76;100.00
35443;BME280;21561;55.654;37.592;2023-04-26T06:45:48;97840.94;;;10.83;100.00
35443;BME280;21561;55.654;37.592;2023-04-26T06:48:14;97839.03;;;10.88;100.00
35443;BME280;21561;55.654;37.592;2023-04-26T06:50:41;97841.47;;;10.93;100.00
35443;BME280;21561;55.654;37.592;2023-04-26T06:53:07;97851.69;;;10.96;100.00
35443;BME280;21561;55.654;37.592;2023-04-26T06:55:34;97840.59;;;10.93;100.00
35443;BME280;21561;55.654;37.592;2023-04-26T06:58:01;97848.56;;;10.88;100.00
35443;BME280;21561;55.654;37.592;2023-04-26T07:00:27;97851.22;;;10.86;100.00
35443;BME280;21561;55.654;37.592;2023-04-26T07:02:55;97848.72;;;10.83;100.00
35443;BME280;21561;55.654;37.592;2023-04-26T07:05:22;97853.03;;;10.84;100.00
35443;BME280;21561;55.654;37.592;2023-04-26T07:07:49;97854.59;;;10.88;100.00
35443;BME280;21561;55.654;37.592;2023-04-26T07:10:16;97857.75;;;10.97;100.00
35443;BME280;21561;55.654;37.592;2023-04-26T07:12:42;97851.47;;;11.02;100.00
35443;BME280;21561;55.654;37.592;2023-04-26T07:15:09;97856.84;;;10.98;100.00
35443;BME280;21561;55.654;37.592;2023-04-26T07:17:36;97853.31;;;11.00;100.00
35443;BME280;21561;55.654;37.592;2023-04-26T07:20:03;97852.44;;;11.00;100.00
35443;BME280;21561;55.654;37.592;2023-04-26T07:22:30;97861.81;;;11.04;100.00
35443;BME280;21561;55.654;37.592;2023-04-26T07:24:57;97861.81;;;11.04;100.00
35443;BME280;21561;55.654;37.592;2023-04-26T07:27:24;97862.66;;;11.04;100.00
35443;BME280;21561;55.654;37.592;2023-04-26T07:29:54;97872.16;;;11.05;100.00
35443;BME280;21561;55.654;37.592;2023-04-26T07:32:23;97867.75;;;11.07;100.00
35443;BME280;21561;55.654;37.592;2023-04-26T07:34:50;97880.53;;;11.12;100.00
35443;BME280;21561;55.654;37.592;2023-04-26T07:37:17;97868.81;;;11.02;100.00
35443;BME280;21561;55.654;37.592;2023-04-26T07:39:43;97872.34;;;10.99;100.00
35443;BME280;21561;55.654;37.592;2023-04-26T07:42:10;97878.47;;;10.98;100.00
35443;BME280;21561;55.654;37.592;2023-04-26T07:44:37;97874.41;;;10.91;100.00
35443;BME280;21561;55.654;37.592;2023-04-26T07:47:03;97877.09;;;10.88;100.00
35443;BME280;21561;55.654;37.592;2023-04-26T07:49:30;97877.06;;;10.89;100.00
35443;BME280;21561;55.654;37.592;2023-04-26T07:51:57;97884.94;;;10.86;100.00
35443;BME280;21561;55.654;37.592;2023-04-26T07:54:27;97876.06;;;10.92;100.00
35443;BME280;21561;55.654;37.592;2023-04-26T07:56:54;97882.97;;;10.93;100.00
35443;BME280;21561;55.654;37.592;2023-04-26T07:59:21;97884.59;;;10.96;100.00
35443;BME280;21561;55.654;37.592;2023-04-26T08:01:48;97883.56;;;11.00;100.00
35443;BME280;21561;55.654;37.592;2023-04-26T08:04:16;97887.78;;;11.04;100.00
35443;BME280;21561;55.654;37.592;2023-04-26T08:06:43;97883.00;;;11.15;100.00
35443;BME280;21561;55.654;37.592;2023-04-26T08:09:12;97891.38;;;11.23;100.00
35443;BME280;21561;55.654;37.592;2023-04-26T08:11:39;97881.72;;;11.27;100.00
35443;BME280;21561;55.654;37.592;2023-04-26T08:14:07;97883.91;;;11.38;100.00
35443;BME280;21561;55.654;37.592;2023-04-26T08:16:33;97877.72;;;11.40;100.00
35443;BME280;21561;55.654;37.592;2023-04-26T08:19:00;97891.03;;;11.33;100.00
35443;BME280;21561;55.654;37.592;2023-04-26T08:21:28;97889.31;;;11.32;100.00
35443;BME280;21561;55.654;37.592;2023-04-26T08:23:55;97892.63;;;11.35;100.00
35443;BME280;21561;55.654;37.592;2023-04-26T08:26:22;97893.16;;;11.45;100.00
35443;BME280;21561;55.654;37.592;2023-04-26T08:28:48;97900.06;;;11.44;100.00
35443;BME280;21561;55.654;37.592;2023-04-26T08:31:15;97899.22;;;11.44;100.00
35443;BME280;21561;55.654;37.592;2023-04-26T08:33:43;97901.72;;;11.47;100.00
35443;BME280;21561;55.654;37.592;2023-04-26T08:36:09;97906.91;;;11.47;100.00
35443;BME280;21561;55.654;37.592;2023-04-26T08:38:36;97898.03;;;11.53;100.00
35443;BME280;21561;55.654;37.592;2023-04-26T08:41:02;97918.50;;;11.60;100.00
35443;BME280;21561;55.654;37.592;2023-04-26T08:43:30;97906.34;;;11.61;100.00
35443;BME280;21561;55.654;37.592;2023-04-26T08:45:57;97908.00;;;11.63;100.00
35443;BME280;21561;55.654;37.592;2023-04-26T08:48:25;97910.34;;;11.70;100.00
35443;BME280;21561;55.654;37.592;2023-04-26T08:50:53;97913.72;;;11.72;100.00
35443;BME280;21561;55.654;37.592;2023-04-26T08:53:20;97920.63;;;11.73;100.00
35443;BME280;21561;55.654;37.592;2023-04-26T08:55:47;97901.28;;;11.80;100.00
35443;BME280;21561;55.654;37.592;2023-04-26T08:58:15;97912.13;;;11.69;100.00
35443;BME280;21561;55.654;37.592;2023-04-26T09:00:42;97906.38;;;11.83;100.00
35443;BME280;21561;55.654;37.592;2023-04-26T09:03:10;97909.88;;;11.82;100.00
35443;BME280;21561;55.654;37.592;2023-04-26T09:05:39;97913.41;;;11.81;100.00
35443;BME280;21561;55.654;37.592;2023-04-26T09:08:10;97916.44;;;11.92;100.00
35443;BME280;21561;55.654;37.592;2023-04-26T09:10:38;97923.53;;;11.87;100.00
35443;BME280;21561;55.654;37.592;2023-04-26T09:13:05;97924.69;;;11.80;100.00
35443;BME280;21561;55.654;37.592;2023-04-26T09:15:32;97939.50;;;11.78;100.00
35443;BME280;21561;55.654;37.592;2023-04-26T09:18:17;97932.38;;;11.83;100.00
35443;BME280;21561;55.654;37.592;2023-04-26T09:20:45;97923.31;;;11.93;100.00
35443;BME280;21561;55.654;37.592;2023-04-26T09:23:11;97937.03;;;11.97;100.00
35443;BME280;21561;55.654;37.592;2023-04-26T09:25:38;97920.41;;;12.01;100.00
35443;BME280;21561;55.654;37.592;2023-04-26T09:28:17;97939.63;;;11.97;100.00
35443;BME280;21561;55.654;37.592;2023-04-26T09:30:44;97941.44;;;11.95;100.00
35443;BME280;21561;55.654;37.592;2023-04-26T09:33:11;97938.66;;;11.99;100.00
35443;BME280;21561;55.654;37.592;2023-04-26T09:35:41;97946.28;;;12.04;100.00
35443;BME280;21561;55.654;37.592;2023-04-26T09:38:11;97947.38;;;11.98;100.00
35443;BME280;21561;55.654;37.592;2023-04-26T09:45:46;97955.66;;;11.62;100.00
35443;BME280;21561;55.654;37.592;2023-04-26T09:48:22;97959.84;;;11.43;100.00
35443;BME280;21561;55.654;37.592;2023-04-26T09:50:52;97971.22;;;11.17;100.00
35443;BME280;21561;55.654;37.592;2023-04-26T09:53:30;97973.25;;;10.83;100.00
35443;BME280;21561;55.654;37.592;2023-04-26T09:56:04;97969.50;;;10.67;100.00
35443;BME280;21561;55.654;37.592;2023-04-26T09:58:32;97974.78;;;10.64;100.00
35443;BME280;21561;55.654;37.592;2023-04-26T10:00:59;97971.41;;;10.62;100.00
35443;BME280;21561;55.654;37.592;2023-04-26T10:03:27;97965.34;;;10.63;100.00
35443;BME280;21561;55.654;37.592;2023-04-26T10:05:54;97967.00;;;10.64;100.00
35443;BME280;21561;55.654;37.592;2023-04-26T10:08:22;97968.50;;;10.71;100.00
35443;BME280;21561;55.654;37.592;2023-04-26T10:10:48;97981.84;;;10.85;100.00
35443;BME280;21561;55.654;37.592;2023-04-26T10:13:17;97979.97;;;10.89;100.00
35443;BME280;21561;55.654;37.592;2023-04-26T10:15:44;97979.97;;;10.89;100.00
35443;BME280;21561;55.654;37.592;2023-04-26T10:18:11;97978.06;;;10.94;100.00
35443;BME280;21561;55.654;37.592;2023-04-26T10:20:39;97986.66;;;10.96;100.00
35443;BME280;21561;55.654;37.592;2023-04-26T10:23:08;97994.34;;;10.99;100.00
35443;BME280;21561;55.654;37.592;2023-04-26T10:25:41;97995.88;;;11.05;100.00
35443;BME280;21561;55.654;37.592;2023-04-26T10:28:07;97999.38;;;11.04;100.00
35443;BME280;21561;55.654;37.592;2023-04-26T10:30:52;98006.97;;;11.08;100.00
35443;BME280;21561;55.654;37.592;2023-04-26T10:33:19;97995.53;;;11.14;100.00
35443;BME280;21561;55.654;37.592;2023-04-26T10:36:03;97990.88;;;11.24;100.00
35443;BME280;21561;55.654;37.592;2023-04-26T10:38:31;97992.09;;;11.37;100.00
35443;BME280;21561;55.654;37.592;2023-04-26T10:43:43;97994.38;;;11.70;100.00
35443;BME280;21561;55.654;37.592;2023-04-26T10:46:31;97999.78;;;11.86;100.00
35443;BME280;21561;55.654;37.592;2023-04-26T10:48:58;97990.78;;;11.96;100.00
35443;BME280;21561;55.654;37.592;2023-04-26T10:51:25;98001.06;;;11.99;100.00
35443;BME280;21561;55.654;37.592;2023-04-26T10:59:06;98004.09;;;11.87;100.00
35443;BME280;21561;55.654;37.592;2023-04-26T11:01:53;98005.59;;;11.94;100.00
35443;BME280;21561;55.654;37.592;2023-04-26T11:04:20;97998.41;;;12.01;100.00
35443;BME280;21561;55.654;37.592;2023-04-26T11:09:36;98012.91;;;12.07;100.00
35443;BME280;21561;55.654;37.592;2023-04-26T11:12:04;98027.53;;;12.09;100.00
35443;BME280;21561;55.654;37.592;2023-04-26T11:14:34;98024.97;;;12.08;100.00
35443;BME280;21561;55.654;37.592;2023-04-26T11:17:10;98020.59;;;12.10;100.00
35443;BME280;21561;55.654;37.592;2023-04-26T11:19:37;98018.00;;;12.10;100.00
35443;BME280;21561;55.654;37.592;2023-04-26T11:22:05;98015.69;;;12.24;100.00
35443;BME280;21561;55.654;37.592;2023-04-26T11:24:32;98023.78;;;12.38;100.00
35443;BME280;21561;55.654;37.592;2023-04-26T11:27:06;98018.44;;;12.84;100.00
35443;BME280;21561;55.654;37.592;2023-04-26T11:29:33;98025.88;;;13.53;100.00
35443;BME280;21561;55.654;37.592;2023-04-26T11:32:00;98024.38;;;14.05;98.11
35443;BME280;21561;55.654;37.592;2023-04-26T11:34:34;98022.84;;;14.37;92.65
35443;BME280;21561;55.654;37.592;2023-04-26T11:37:01;98031.00;;;14.48;89.63
35443;BME280;21561;55.654;37.592;2023-04-26T11:39:33;98032.50;;;14.18;86.25
35443;BME280;21561;55.654;37.592;2023-04-26T11:42:07;98032.63;;;13.96;89.73
35443;BME280;21561;55.654;37.592;2023-04-26T11:44:34;98037.72;;;13.99;90.01
35443;BME280;21561;55.654;37.592;2023-04-26T11:47:01;98038.69;;;14.15;90.08
35443;BME280;21561;55.654;37.592;2023-04-26T11:49:31;98035.44;;;14.10;87.17
35443;BME280;21561;55.654;37.592;2023-04-26T11:51:58;98031.72;;;14.52;87.80
35443;BME280;21561;55.654;37.592;2023-04-26T11:54:28;98036.75;;;15.42;81.71
35443;BME280;21561;55.654;37.592;2023-04-26T11:56:56;98037.53;;;15.94;81.40
35443;BME280;21561;55.654;37.592;2023-04-26T11:59:24;98045.78;;;16.34;72.18
35443;BME280;21561;55.654;37.592;2023-04-26T12:01:51;98041.91;;;16.25;74.34
35443;BME280;21561;55.654;37.592;2023-04-26T12:04:18;98044.69;;;15.74;75.55
35443;BME280;21561;55.654;37.592;2023-04-26T12:06:45;98048.97;;;15.42;75.83
35443;BME280;21561;55.654;37.592;2023-04-26T12:09:12;98039.81;;;15.51;77.94
35443;BME280;21561;55.654;37.592;2023-04-26T12:11:39;98042.50;;;15.98;76.70
35443;BME280;21561;55.654;37.592;2023-04-26T12:14:05;98043.69;;;15.93;76.67
35443;BME280;21561;55.654;37.592;2023-04-26T12:16:35;98052.38;;;15.60;76.16
35443;BME280;21561;55.654;37.592;2023-04-26T12:19:05;98050.28;;;15.33;79.14
35443;BME280;21561;55.654;37.592;2023-04-26T12:21:42;98053.25;;;15.10;80.57
35443;BME280;21561;55.654;37.592;2023-04-26T12:24:21;98072.53;;;14.89;79.85
35443;BME280;21561;55.654;37.592;2023-04-26T12:26:48;98072.34;;;14.58;81.54
35443;BME280;21561;55.654;37.592;2023-04-26T12:29:15;98089.19;;;14.14;77.61
35443;BME280;21561;55.654;37.592;2023-04-26T12:31:42;98064.28;;;14.07;80.30
35443;BME280;21561;55.654;37.592;2023-04-26T12:34:08;98060.69;;;13.90;79.32
35443;BME280;21561;55.654;37.592;2023-04-26T12:36:35;98068.25;;;13.97;79.28
35443;BME280;21561;55.654;37.592;2023-04-26T12:39:02;98062.28;;;14.12;77.35
35443;BME280;21561;55.654;37.592;2023-04-26T12:41:30;98063.09;;;14.14;76.07
35443;BME280;21561;55.654;37.592;2023-04-26T12:43:57;98069.41;;;14.08;75.90
35443;BME280;21561;55.654;37.592;2023-04-26T12:46:23;98075.19;;;14.34;74.69
35443;BME280;21561;55.654;37.592;2023-04-26T12:48:52;98057.94;;;15.03;74.64
35443;BME280;21561;55.654;37.592;2023-04-26T12:51:18;98057.97;;;15.70;71.70
35443;BME280;21561;55.654;37.592;2023-04-26T12:53:45;98063.41;;;15.98;68.04
35443;BME280;21561;55.654;37.592;2023-04-26T12:56:12;98049.69;;;16.73;63.79
35443;BME280;21561;55.654;37.592;2023-04-26T12:58:38;98069.34;;;17.69;65.26
35443;BME280;21561;55.654;37.592;2023-04-26T13:01:05;98038.47;;;18.16;58.23